Terminal Aerodrome Forecast
Issued by NWS

Home | Current Version | Previous Version | Text Only | Print | Product List | Glossary On
Versions: 1 2 3 4 5 6 7 8 9 10 11 12 13
000
FTUS45 KRIW 031736
TAFCPR
TAF
KCPR 031736Z 0318/0418 VRB04KT P6SM SCT022 SCT120
     FM032100 12014G20KT P6SM VCSH SCT050 BKN100
     FM032300 12015G35KT P6SM VCTS BKN040CB
     FM040300 09012KT P6SM VCSH BKN040
     FM040600 VRB05KT P6SM FEW015 SCT030
     FM041500 VRB04KT P6SM SCT030 SCT120=

USA.gov is the U.S. government's official web portal to all federal, state and local government web resources and services.